Time;durP1;ratioP1;P1;durP2;ratioP2;P2;SDS_P1;SDS_P2;PMS_P1;PMS_P2;Temp;Humidity;BMP_temperature;BMP_pressure;BME280_temperature;BME280_humidity;BME280_pressure;Samples;Min_cycle;Max_cycle;Signal;HPM_P1;HPM_P2
2023/10/09 00:01:17;;;;;;;14.52;4.43;;;14.00;99.90;;;;;;5106677;28;20043;-81
2023/10/09 00:03:09;;;;;;;10.82;4.35;;;14.00;99.90;;;;;;5089338;28;20040;-82
2023/10/09 00:08:11;;;;;;;14.00;4.35;;;14.00;99.90;;;;;;5080112;28;20053;-82
2023/10/09 00:10:48;;;;;;;14.47;4.93;;;14.00;99.90;;;;;;5090866;28;20071;-85
2023/10/09 00:13:15;;;;;;;11.43;4.80;;;14.00;99.90;;;;;;5115673;28;20286;-83
2023/10/09 00:15:51;;;;;;;15.02;5.47;;;14.00;99.90;;;;;;5100548;28;20493;-82
2023/10/09 00:18:22;;;;;;;10.65;4.55;;;13.60;99.90;;;;;;5107888;28;20040;-82
2023/10/09 00:20:54;;;;;;;13.18;4.78;;;14.00;99.90;;;;;;5092907;28;20398;-83
2023/10/09 00:23:20;;;;;;;11.85;5.03;;;14.00;99.90;;;;;;5099629;28;20048;-81
2023/10/09 00:26:06;;;;;;;11.43;4.80;;;14.00;99.90;;;;;;5093004;28;20040;-84
2023/10/09 00:28:34;;;;;;;11.65;5.35;;;14.00;99.90;;;;;;5097279;28;20041;-82
2023/10/09 00:31:04;;;;;;;9.75;4.72;;;13.60;99.90;;;;;;5091031;28;20044;-85
2023/10/09 00:33:30;;;;;;;11.85;5.43;;;14.00;99.90;;;;;;5087650;28;20033;-81
2023/10/09 00:35:55;;;;;;;9.00;4.90;;;15.00;99.90;;;;;;5099083;28;20069;-83
2023/10/09 00:41:04;;;;;;;14.05;5.68;;;14.00;99.90;;;;;;5104595;28;20041;-83
2023/10/09 00:43:30;;;;;;;10.45;5.70;;;14.00;99.90;;;;;;5094249;28;20040;-82
2023/10/09 00:48:47;;;;;;;12.50;5.53;;;14.00;99.90;;;;;;5082422;28;20514;-82
2023/10/09 00:51:18;;;;;;;16.85;6.82;;;14.20;99.90;;;;;;5084996;28;20052;-82
2023/10/09 00:53:58;;;;;;;16.60;6.00;;;14.00;99.90;;;;;;5100128;28;20054;-83
2023/10/09 00:56:43;;;;;;;18.92;6.70;;;14.00;99.90;;;;;;5095366;28;20083;-82
2023/10/09 00:59:20;;;;;;;19.73;6.32;;;14.00;99.90;;;;;;5062593;28;20047;-83
2023/10/09 01:01:56;;;;;;;17.50;5.63;;;13.20;99.90;;;;;;5099420;28;20040;-81
2023/10/09 01:04:28;;;;;;;15.93;6.40;;;14.00;99.90;;;;;;5100869;28;20097;-82
2023/10/09 01:09:55;;;;;;;15.35;7.10;;;14.00;99.90;;;;;;5075585;28;20052;-84
2023/10/09 01:12:21;;;;;;;;;;;14.10;99.90;;;;;;5089121;28;20060;-83
2023/10/09 01:14:54;;;;;;;20.55;7.72;;;14.00;99.90;;;;;;5079823;28;20332;-84
2023/10/09 01:17:35;;;;;;;15.93;7.03;;;14.00;99.90;;;;;;5094785;28;20055;-83
2023/10/09 01:20:04;;;;;;;16.45;7.53;;;14.00;99.90;;;;;;5075882;28;20393;-83
2023/10/09 01:22:30;;;;;;;17.33;7.82;;;14.10;99.90;;;;;;5082889;28;20040;-84
2023/10/09 01:24:56;;;;;;;16.92;8.38;;;14.00;99.90;;;;;;5080669;28;20044;-83
2023/10/09 01:27:25;;;;;;;18.45;8.23;;;14.00;99.90;;;;;;5079270;28;20048;-82
2023/10/09 01:29:51;;;;;;;23.08;9.80;;;14.00;99.90;;;;;;5092423;28;20442;-82
2023/10/09 01:32:19;;;;;;;22.85;9.82;;;14.10;99.90;;;;;;5096249;28;20052;-82
2023/10/09 01:34:49;;;;;;;25.67;10.43;;;14.10;99.90;;;;;;5109598;28;20048;-84
2023/10/09 01:37:22;;;;;;;24.35;10.05;;;14.10;99.90;;;;;;5111756;28;20040;-83
2023/10/09 01:39:59;;;;;;;20.48;9.73;;;14.00;99.90;;;;;;5091664;28;20040;-83
2023/10/09 01:42:45;;;;;;;22.85;9.85;;;14.10;99.90;;;;;;5100832;28;20041;-83
2023/10/09 01:47:51;;;;;;;24.38;11.10;;;14.10;99.90;;;;;;5095625;28;20439;-84
2023/10/09 01:50:35;;;;;;;29.45;11.80;;;14.00;99.90;;;;;;5070195;28;20044;-83
2023/10/09 01:53:02;;;;;;;25.35;11.68;;;14.10;99.90;;;;;;5100590;28;20075;-84
2023/10/09 02:00:48;;;;;;;27.75;12.52;;;14.10;99.90;;;;;;5109974;28;20091;-84
2023/10/09 02:03:23;;;;;;;31.00;13.30;;;14.10;99.90;;;;;;5097007;28;20066;-83
2023/10/09 02:05:51;;;;;;;32.17;14.45;;;13.30;99.90;;;;;;5104030;28;20048;-86
2023/10/09 02:08:21;;;;;;;28.73;13.38;;;14.10;99.90;;;;;;5102542;28;20501;-83
2023/10/09 02:10:48;;;;;;;34.75;14.30;;;14.10;99.90;;;;;;5092732;28;20111;-83
2023/10/09 02:13:16;;;;;;;28.80;14.00;;;14.20;99.90;;;;;;5098521;28;20040;-85
2023/10/09 02:18:26;;;;;;;27.95;12.80;;;14.10;99.90;;;;;;5088983;28;20045;-83
2023/10/09 02:21:12;;;;;;;31.42;13.35;;;14.10;99.90;;;;;;5091461;28;20047;-83
2023/10/09 02:23:46;;;;;;;29.42;13.30;;;14.10;99.90;;;;;;5077297;28;20063;-83
2023/10/09 02:26:26;;;;;;;35.80;15.80;;;14.10;99.90;;;;;;5099025;28;20067;-83
2023/10/09 02:28:59;;;;;;;35.25;16.05;;;14.10;99.90;;;;;;5092329;28;20076;-82
2023/10/09 02:31:28;;;;;;;33.20;14.93;;;14.10;99.90;;;;;;5091946;28;20039;-83
2023/10/09 02:33:55;;;;;;;35.90;15.95;;;14.10;99.90;;;;;;5109000;28;20043;-82
2023/10/09 02:36:22;;;;;;;33.60;15.87;;;14.10;99.90;;;;;;5122002;28;20039;-82
2023/10/09 02:38:48;;;;;;;36.60;16.38;;;14.10;99.90;;;;;;5113971;28;20036;-82
2023/10/09 02:41:20;;;;;;;38.60;16.10;;;14.10;99.90;;;;;;5107779;28;20072;-82
2023/10/09 02:43:55;;;;;;;33.30;16.50;;;14.00;99.90;;;;;;5115691;28;20119;-83
2023/10/09 02:46:28;;;;;;;30.70;15.40;;;14.10;99.90;;;;;;5106673;28;20032;-82
2023/10/09 02:48:56;;;;;;;33.22;15.77;;;14.00;99.90;;;;;;5106459;28;20051;-82
2023/10/09 02:53:57;;;;;;;33.53;15.07;;;14.00;99.90;;;;;;5119535;28;20069;-82
2023/10/09 02:56:24;;;;;;;37.95;17.27;;;14.00;99.90;;;;;;5103111;28;20128;-82
2023/10/09 02:59:08;;;;;;;30.15;16.42;;;14.10;99.90;;;;;;5096235;28;20071;-82
2023/10/09 03:01:39;;;;;;;37.33;17.50;;;14.10;99.90;;;;;;5102771;28;20036;-81
2023/10/09 03:04:05;;;;;;;36.97;17.30;;;14.10;99.90;;;;;;5081220;28;20024;-82
2023/10/09 03:06:35;;;;;;;33.47;17.75;;;14.10;99.90;;;;;;5108120;28;20036;-83
2023/10/09 03:09:16;;;;;;;42.38;20.70;;;14.10;99.90;;;;;;5102103;28;20075;-82
2023/10/09 03:11:46;;;;;;;39.38;20.52;;;14.10;99.90;;;;;;5114467;28;20044;-82
2023/10/09 03:14:12;;;;;;;42.28;21.23;;;14.10;99.90;;;;;;5098822;28;20072;-80
2023/10/09 03:16:38;;;;;;;37.92;20.25;;;14.20;99.90;;;;;;5083845;28;20098;-82
2023/10/09 03:19:07;;;;;;;38.50;19.95;;;14.10;99.90;;;;;;5092520;28;20048;-82
2023/10/09 03:21:33;;;;;;;40.83;21.17;;;14.90;99.90;;;;;;5098370;28;20040;-82
2023/10/09 03:24:00;;;;;;;39.38;20.30;;;14.20;99.90;;;;;;5103731;28;20053;-81
2023/10/09 03:26:26;;;;;;;45.17;22.58;;;14.20;99.90;;;;;;5091959;28;20053;-80
2023/10/09 03:28:54;;;;;;;37.22;20.73;;;14.20;99.90;;;;;;5090070;28;20051;-79
2023/10/09 03:31:22;;;;;;;43.83;21.48;;;14.20;99.90;;;;;;5106390;28;20099;-78
2023/10/09 03:33:57;;;;;;;40.20;21.65;;;14.30;99.90;;;;;;5094978;28;20052;-81
2023/10/09 03:36:30;;;;;;;44.88;22.02;;;14.30;99.90;;;;;;5080719;28;20056;-81
2023/10/09 03:38:58;;;;;;;48.47;22.25;;;14.30;99.90;;;;;;5113137;28;20047;-81
2023/10/09 03:41:26;;;;;;;49.15;23.52;;;14.40;99.90;;;;;;5105502;28;20051;-81
2023/10/09 03:43:55;;;;;;;43.42;22.38;;;14.40;99.90;;;;;;5091185;28;20086;-82
2023/10/09 03:46:22;;;;;;;44.80;22.33;;;14.40;99.90;;;;;;5088383;28;20101;-83
2023/10/09 03:48:52;;;;;;;45.85;23.50;;;14.50;99.90;;;;;;5086738;28;20043;-81
2023/10/09 03:51:22;;;;;;;42.67;21.20;;;14.50;99.90;;;;;;5090951;28;20111;-81
2023/10/09 03:53:49;;;;;;;46.30;24.65;;;14.50;99.90;;;;;;5100495;28;20047;-82
2023/10/09 03:56:18;;;;;;;52.83;25.23;;;14.50;99.90;;;;;;5089530;28;20044;-82
2023/10/09 03:58:46;;;;;;;52.28;23.63;;;14.50;99.90;;;;;;5101342;28;20056;-82
2023/10/09 04:01:29;;;;;;;49.55;23.45;;;14.60;99.90;;;;;;5092116;28;20063;-81
2023/10/09 04:03:59;;;;;;;54.05;24.38;;;14.60;99.90;;;;;;5079361;28;20040;-81
2023/10/09 04:06:31;;;;;;;48.80;23.67;;;14.60;99.90;;;;;;5097209;28;20040;-81
2023/10/09 04:09:13;;;;;;;43.75;23.70;;;14.60;99.90;;;;;;5096872;28;20114;-82
2023/10/09 04:11:43;;;;;;;45.53;23.70;;;14.70;99.90;;;;;;5093317;28;20065;-81
2023/10/09 04:14:14;;;;;;;49.08;24.25;;;14.70;99.90;;;;;;5093173;28;20070;-82
2023/10/09 04:16:51;;;;;;;44.17;23.00;;;14.70;99.90;;;;;;5096308;28;20123;-82
2023/10/09 04:19:22;;;;;;;48.10;23.88;;;14.70;99.90;;;;;;5099063;28;20043;-82
2023/10/09 04:21:48;;;;;;;41.63;22.40;;;14.80;99.90;;;;;;5068363;28;20044;-79
2023/10/09 04:26:46;;;;;;;41.35;21.58;;;14.80;99.90;;;;;;5082215;28;20151;-81
2023/10/09 04:29:37;;;;;;;45.05;21.08;;;14.90;99.90;;;;;;5097133;28;20124;-82
2023/10/09 04:32:07;;;;;;;39.67;20.98;;;14.90;99.90;;;;;;5073044;28;20052;-80
2023/10/09 04:34:37;;;;;;;38.63;20.52;;;15.00;99.90;;;;;;5067879;28;20035;-81
2023/10/09 04:40:10;;;;;;;45.45;20.42;;;15.10;99.90;;;;;;5092699;28;20044;-81
2023/10/09 04:42:38;;;;;;;41.75;19.58;;;15.10;99.90;;;;;;5090314;28;20060;-82
2023/10/09 05:00:46;;;;;;;42.17;19.92;;;15.20;99.90;;;;;;5094395;28;20040;-81
2023/10/09 05:03:12;;;;;;;37.70;20.65;;;15.30;99.90;;;;;;5100566;28;20044;-80
2023/10/09 05:08:21;;;;;;;53.90;20.77;;;15.40;99.90;;;;;;5104548;28;20048;-80
2023/10/09 05:16:04;;;;;;;38.25;18.73;;;15.40;99.90;;;;;;5111254;28;20126;-80
2023/10/09 05:18:36;;;;;;;40.60;17.65;;;15.40;99.90;;;;;;5095808;28;20045;-82
2023/10/09 05:26:49;;;;;;;40.83;18.92;;;15.40;99.90;;;;;;5096583;28;20056;-82
2023/10/09 05:32:15;;;;;;;41.17;18.38;;;15.40;99.90;;;;;;5106478;28;20147;-83
2023/10/09 05:37:32;;;;;;;38.72;16.35;;;15.40;99.90;;;;;;5103449;28;20489;-83
2023/10/09 05:48:06;;;;;;;41.55;16.65;;;15.60;99.90;;;;;;5083241;28;20049;-83
2023/10/09 06:06:18;;;;;;;28.17;12.13;;;15.70;99.90;;;;;;5089818;28;20066;-84
2023/10/09 06:24:18;;;;;;;25.63;11.32;;;15.80;99.90;;;;;;5092673;28;20052;-82
2023/10/09 06:29:38;;;;;;;21.15;10.23;;;15.80;99.90;;;;;;5109723;28;20051;-82
2023/10/09 06:38:21;;;;;;;22.35;11.38;;;15.80;99.90;;;;;;5090312;28;20093;-82
2023/10/09 06:43:16;;;;;;;22.92;10.40;;;15.80;99.90;;;;;;5107902;27;20044;-83
2023/10/09 06:45:45;;;;;;;30.83;10.50;;;15.90;99.90;;;;;;5074585;28;20105;-81
2023/10/09 06:48:56;;;;;;;26.70;10.85;;;15.80;99.90;;;;;;5092514;28;20040;-80
2023/10/09 06:59:04;;;;;;;26.08;11.00;;;15.90;99.90;;;;;;5093807;28;20083;-82
2023/10/09 07:01:44;;;;;;;32.95;10.80;;;15.90;99.90;;;;;;5097757;28;20039;-81
2023/10/09 07:04:18;;;;;;;21.73;10.00;;;15.90;99.90;;;;;;5099671;28;20139;-81
2023/10/09 07:06:51;;;;;;;28.23;11.00;;;15.80;99.90;;;;;;5096018;28;20045;-82
2023/10/09 07:09:20;;;;;;;33.47;11.43;;;15.90;99.90;;;;;;5096559;28;20470;-81
2023/10/09 07:17:21;;;;;;;29.38;10.80;;;15.90;99.90;;;;;;5113228;28;20048;-80
2023/10/09 07:27:48;;;;;;;25.45;11.10;;;15.90;99.90;;;;;;5091748;28;20044;-83
2023/10/09 07:38:28;;;;;;;29.73;11.13;;;15.90;99.90;;;;;;5091625;28;20036;-82
2023/10/09 07:41:44;;;;;;;30.77;10.90;;;15.90;99.90;;;;;;5093217;28;20045;-80
2023/10/09 07:43:50;;;;;;;25.65;9.95;;;15.90;99.90;;;;;;5096937;28;20064;-82
2023/10/09 07:46:30;;;;;;;26.05;10.40;;;15.90;99.90;;;;;;5090682;28;20044;-80
2023/10/09 07:49:09;;;;;;;28.55;10.45;;;15.90;99.90;;;;;;5101959;28;20044;-81
2023/10/09 07:51:38;;;;;;;28.95;10.75;;;15.90;99.90;;;;;;5092344;28;20047;-81
2023/10/09 07:54:08;;;;;;;31.85;10.35;;;16.00;99.90;;;;;;5100090;28;20168;-82
2023/10/09 07:56:41;;;;;;;23.17;9.85;;;15.90;99.90;;;;;;5082194;28;20070;-81
2023/10/09 07:59:10;;;;;;;25.00;10.15;;;15.90;99.90;;;;;;5102036;28;20127;-82
2023/10/09 08:01:54;;;;;;;22.17;10.23;;;15.90;99.90;;;;;;5094674;28;20462;-81
2023/10/09 08:07:34;;;;;;;27.30;9.93;;;15.90;99.90;;;;;;5094715;28;20571;-83
2023/10/09 08:15:51;;;;;;;29.08;10.35;;;15.90;99.90;;;;;;5083138;28;20546;-81
2023/10/09 08:18:18;;;;;;;30.05;10.45;;;15.90;99.90;;;;;;5105023;28;20054;-81
2023/10/09 08:23:48;;;;;;;26.98;10.05;;;16.00;99.90;;;;;;5084256;28;20048;-81
2023/10/09 08:26:15;;;;;;;28.00;10.00;;;16.00;99.90;;;;;;5088816;28;20044;-82
2023/10/09 08:28:45;;;;;;;29.60;10.37;;;16.00;99.90;;;;;;5084054;28;20044;-78
2023/10/09 08:31:45;;;;;;;28.95;10.18;;;16.00;99.90;;;;;;5104285;28;20051;-79
2023/10/09 08:34:23;;;;;;;;;;;16.00;99.90;;;;;;5067113;28;20454;-80
2023/10/09 08:36:53;;;;;;;30.70;10.27;;;16.00;99.90;;;;;;5095279;28;19928;-80
2023/10/09 08:39:25;;;;;;;31.42;11.02;;;16.00;99.90;;;;;;5090623;28;20040;-79
2023/10/09 08:42:01;;;;;;;23.80;10.23;;;16.00;99.90;;;;;;5101997;28;20040;-81
2023/10/09 08:44:29;;;;;;;27.60;10.32;;;16.00;99.90;;;;;;5087413;28;20426;-81
2023/10/09 08:46:57;;;;;;;;;;;16.50;99.90;;;;;;5097145;28;20493;-81
2023/10/09 08:49:26;;;;;;;35.90;11.02;;;16.00;99.90;;;;;;5082511;28;19932;-82
2023/10/09 08:51:54;;;;;;;34.75;10.95;;;16.10;99.90;;;;;;5089178;28;20066;-82
2023/10/09 08:54:20;;;;;;;32.80;10.90;;;16.10;99.90;;;;;;5071494;28;20486;-82
2023/10/09 08:56:49;;;;;;;28.80;10.68;;;16.20;99.90;;;;;;5089101;28;20090;-81
2023/10/09 08:59:18;;;;;;;31.98;10.80;;;16.10;99.90;;;;;;5093561;28;20179;-81
2023/10/09 09:01:49;;;;;;;23.10;9.52;;;16.20;99.90;;;;;;5075346;28;20389;-83
2023/10/09 09:04:35;;;;;;;30.67;11.55;;;16.20;99.90;;;;;;5100840;28;20032;-80
2023/10/09 09:07:02;;;;;;;35.45;11.18;;;16.20;99.90;;;;;;5095283;28;20129;-83
2023/10/09 09:09:30;;;;;;;34.13;10.30;;;16.50;99.90;;;;;;5079900;28;20405;-82
2023/10/09 09:11:56;;;;;;;23.02;9.57;;;16.20;99.90;;;;;;5063438;28;20056;-83
2023/10/09 09:14:38;;;;;;;27.75;9.73;;;16.30;99.90;;;;;;5100432;28;20044;-80
2023/10/09 09:17:10;;;;;;;31.85;9.70;;;16.20;99.90;;;;;;5100194;28;20036;-80
2023/10/09 09:19:38;;;;;;;27.30;9.77;;;16.30;99.90;;;;;;5097598;28;20052;-81
2023/10/09 09:22:12;;;;;;;21.43;9.63;;;16.30;99.90;;;;;;5068242;28;20071;-81
2023/10/09 09:25:00;;;;;;;23.83;9.60;;;16.30;99.90;;;;;;5088997;28;20299;-81
2023/10/09 09:27:52;;;;;;;23.13;9.07;;;16.30;99.90;;;;;;5099609;28;20093;-81
2023/10/09 09:30:34;;;;;;;24.50;9.15;;;16.30;99.90;;;;;;5091328;28;20117;-80
2023/10/09 09:33:26;;;;;;;23.60;10.02;;;16.30;99.90;;;;;;5104480;28;20040;-80
2023/10/09 09:35:57;;;;;;;;;;;16.50;99.90;;;;;;5086945;28;20070;-80
2023/10/09 09:38:25;;;;;;;24.83;9.38;;;16.30;99.90;;;;;;5098809;28;19924;-80
2023/10/09 09:40:55;;;;;;;31.45;10.23;;;16.30;99.90;;;;;;5089324;28;20048;-82
2023/10/09 09:43:23;;;;;;;28.00;9.38;;;16.40;99.90;;;;;;5090605;28;20043;-82
2023/10/09 09:45:52;;;;;;;25.50;10.23;;;16.40;99.90;;;;;;5107982;28;20052;-83
2023/10/09 09:48:18;;;;;;;22.40;10.45;;;16.50;99.90;;;;;;5082832;28;20494;-82
2023/10/09 09:50:45;;;;;;;29.55;9.52;;;16.50;99.90;;;;;;5098500;28;20086;-81
2023/10/09 09:53:18;;;;;;;27.48;9.60;;;16.50;99.90;;;;;;5100536;28;20119;-81
2023/10/09 09:55:57;;;;;;;28.50;9.10;;;16.50;99.90;;;;;;5084941;28;20098;-82
2023/10/09 09:58:27;;;;;;;19.30;8.02;;;16.50;99.90;;;;;;5078852;28;20055;-80
2023/10/09 10:01:00;;;;;;;23.83;8.35;;;16.50;99.90;;;;;;5102480;28;20581;-81
2023/10/09 10:03:43;;;;;;;25.33;8.23;;;16.50;99.90;;;;;;5095222;28;20040;-81
2023/10/09 10:06:13;;;;;;;21.17;7.78;;;16.50;99.90;;;;;;5100398;28;20097;-81
2023/10/09 10:08:41;;;;;;;26.73;8.18;;;16.50;99.90;;;;;;5094933;28;20048;-82
2023/10/09 10:11:13;;;;;;;22.08;7.63;;;16.50;99.90;;;;;;5105384;28;20040;-80
2023/10/09 10:13:42;;;;;;;18.40;7.03;;;16.60;99.90;;;;;;5099763;28;20064;-81
2023/10/09 10:19:21;;;;;;;22.00;7.85;;;16.50;99.90;;;;;;5102587;28;20464;-81
2023/10/09 10:21:52;;;;;;;24.75;7.85;;;16.60;99.90;;;;;;5073828;28;20044;-81
2023/10/09 10:25:32;;;;;;;22.15;7.72;;;16.50;99.90;;;;;;5100390;28;20044;-81
2023/10/09 10:27:26;;;;;;;20.15;7.80;;;16.50;99.90;;;;;;5110145;27;20063;-80
2023/10/09 10:30:14;;;;;;;20.88;7.65;;;16.50;99.90;;;;;;5116803;28;20127;-80
2023/10/09 10:32:53;;;;;;;19.95;7.85;;;16.50;99.90;;;;;;5114557;28;20043;-79
2023/10/09 10:35:32;;;;;;;29.20;7.90;;;16.50;99.90;;;;;;5111168;28;20040;-81
2023/10/09 10:38:11;;;;;;;26.33;8.45;;;16.50;99.90;;;;;;5123542;28;20075;-82
2023/10/09 10:40:46;;;;;;;30.13;8.52;;;16.60;99.90;;;;;;5096908;28;20093;-81
2023/10/09 10:43:47;;;;;;;22.98;7.57;;;16.60;99.90;;;;;;5081020;28;20132;-80
2023/10/09 10:46:15;;;;;;;21.33;7.32;;;16.60;99.90;;;;;;5086743;28;20049;-82
2023/10/09 10:48:47;;;;;;;25.98;7.47;;;16.60;99.90;;;;;;5091688;28;20067;-82
2023/10/09 10:51:21;;;;;;;22.50;7.50;;;16.60;99.90;;;;;;5068195;28;20056;-79
2023/10/09 10:53:59;;;;;;;27.33;8.30;;;16.70;99.90;;;;;;5078533;28;20045;-79
2023/10/09 10:56:37;;;;;;;22.50;7.03;;;16.70;99.90;;;;;;5095060;28;20088;-81
2023/10/09 11:01:57;;;;;;;20.98;7.15;;;16.70;99.90;;;;;;5084921;28;20048;-80
2023/10/09 11:04:24;;;;;;;23.17;8.15;;;16.70;99.90;;;;;;5090246;28;20147;-81
2023/10/09 11:07:00;;;;;;;19.20;7.00;;;16.70;99.90;;;;;;5079254;28;20559;-79
2023/10/09 11:09:35;;;;;;;17.13;7.15;;;16.70;99.90;;;;;;5105033;28;20055;-79
2023/10/09 11:12:22;;;;;;;19.75;5.85;;;16.70;99.90;;;;;;5096428;28;20044;-78
2023/10/09 11:15:08;;;;;;;18.02;6.10;;;16.90;99.90;;;;;;5086539;28;20494;-78
2023/10/09 11:17:35;;;;;;;24.55;6.75;;;16.60;99.90;;;;;;5089984;28;20040;-81
2023/10/09 11:25:39;;;;;;;23.02;7.72;;;16.50;99.90;;;;;;5094046;28;20052;-81
2023/10/09 11:28:29;;;;;;;26.38;7.03;;;16.50;99.90;;;;;;5075696;28;20055;-82
2023/10/09 11:31:06;;;;;;;24.45;6.93;;;16.50;99.90;;;;;;5091549;28;20059;-82
2023/10/09 11:33:52;;;;;;;21.75;7.63;;;16.60;99.90;;;;;;5107920;28;20086;-79
2023/10/09 11:36:29;;;;;;;27.08;7.15;;;16.50;99.90;;;;;;5107830;28;20105;-80
2023/10/09 11:39:12;;;;;;;21.08;6.63;;;16.70;99.90;;;;;;5108857;28;20044;-81
2023/10/09 11:41:41;;;;;;;20.65;7.35;;;16.80;99.90;;;;;;5093774;28;20072;-81
2023/10/09 11:44:07;;;;;;;22.63;6.07;;;16.90;99.90;;;;;;5107329;28;20512;-80
2023/10/09 11:46:50;;;;;;;26.77;6.60;;;16.90;99.90;;;;;;5092547;28;20190;-80
2023/10/09 11:54:35;;;;;;;23.83;5.28;;;16.80;99.90;;;;;;5111442;28;20066;-80
2023/10/09 11:57:02;;;;;;;25.47;6.87;;;16.90;99.90;;;;;;5113560;28;20040;-80
2023/10/09 11:59:34;;;;;;;20.85;5.05;;;16.70;99.90;;;;;;5098913;28;20290;-81
2023/10/09 12:02:03;;;;;;;18.92;5.00;;;16.90;99.90;;;;;;5090182;28;20062;-80
2023/10/09 12:04:30;;;;;;;20.92;5.93;;;16.80;99.90;;;;;;5092230;28;20116;-81
2023/10/09 12:07:09;;;;;;;17.33;5.18;;;16.80;99.90;;;;;;5121510;28;20080;-80
2023/10/09 12:09:45;;;;;;;18.42;5.45;;;16.80;99.90;;;;;;5073305;28;20044;-79
2023/10/09 12:12:10;;;;;;;19.45;4.88;;;16.80;99.90;;;;;;5109380;28;20139;-81
2023/10/09 12:14:39;;;;;;;20.65;5.25;;;16.60;99.90;;;;;;5105001;28;20051;-81
2023/10/09 12:17:06;;;;;;;12.23;4.93;;;16.70;99.90;;;;;;5098579;28;20044;-80
2023/10/09 12:19:37;;;;;;;15.37;5.17;;;16.70;99.90;;;;;;5097659;28;20036;-79
2023/10/09 12:22:05;;;;;;;20.10;5.45;;;16.70;99.90;;;;;;5090276;28;20055;-81
2023/10/09 12:24:33;;;;;;;24.05;5.72;;;17.60;99.90;;;;;;5130189;28;20046;-81
2023/10/09 12:26:59;;;;;;;20.10;5.28;;;16.70;99.90;;;;;;5101475;28;20696;-78
2023/10/09 12:29:29;;;;;;;24.08;5.97;;;16.70;99.90;;;;;;5117769;28;20059;-80
2023/10/09 12:32:01;;;;;;;20.10;5.65;;;16.80;99.90;;;;;;5092842;28;20059;-82
2023/10/09 12:34:27;;;;;;;17.65;5.40;;;16.70;99.90;;;;;;5076666;28;20124;-82
2023/10/09 12:37:01;;;;;;;21.08;5.60;;;16.70;99.90;;;;;;5087026;28;20136;-81
2023/10/09 12:39:33;;;;;;;20.48;4.80;;;16.70;99.90;;;;;;5116543;28;20036;-81
2023/10/09 12:42:06;;;;;;;14.20;5.30;;;16.70;99.90;;;;;;5105479;28;20058;-80
2023/10/09 12:44:34;;;;;;;17.63;5.10;;;16.70;99.90;;;;;;5103746;28;20359;-80
2023/10/09 12:47:04;;;;;;;18.13;5.45;;;16.70;99.90;;;;;;5113318;28;20452;-79
2023/10/09 12:49:30;;;;;;;13.43;4.75;;;16.80;99.90;;;;;;5100246;28;20257;-81
2023/10/09 12:51:58;;;;;;;20.20;5.80;;;16.80;99.90;;;;;;5106134;28;20032;-81
2023/10/09 12:54:27;;;;;;;19.58;5.60;;;16.80;99.90;;;;;;5104297;28;20057;-80
2023/10/09 12:56:54;;;;;;;25.50;5.82;;;16.80;99.90;;;;;;5106533;28;20493;-80
2023/10/09 12:59:20;;;;;;;21.80;4.75;;;16.80;99.90;;;;;;5092911;28;20052;-79
2023/10/09 13:01:52;;;;;;;15.75;4.95;;;16.90;99.90;;;;;;5098790;28;20571;-80
2023/10/09 13:04:22;;;;;;;19.70;4.63;;;16.90;99.90;;;;;;5105628;28;20096;-80
2023/10/09 13:06:51;;;;;;;17.10;5.00;;;16.90;99.90;;;;;;5092073;28;20047;-79
2023/10/09 13:09:32;;;;;;;21.25;5.10;;;16.90;99.90;;;;;;5124116;28;20036;-81
2023/10/09 13:12:00;;;;;;;15.63;5.05;;;16.90;99.90;;;;;;5111299;28;20059;-81
2023/10/09 13:14:28;;;;;;;11.20;4.28;;;16.90;99.90;;;;;;5101638;28;20047;-79
2023/10/09 13:16:56;;;;;;;18.80;4.85;;;16.90;99.90;;;;;;5087368;28;20505;-80
2023/10/09 13:19:24;;;;;;;13.35;4.25;;;16.90;99.90;;;;;;5098397;28;20053;-79
2023/10/09 13:21:50;;;;;;;10.52;4.47;;;16.80;99.90;;;;;;5104414;28;20052;-81
2023/10/09 13:24:16;;;;;;;16.67;4.30;;;16.80;99.90;;;;;;5109200;28;20054;-81
2023/10/09 13:26:46;;;;;;;18.17;4.82;;;16.80;99.90;;;;;;5083290;28;20058;-79
2023/10/09 13:29:13;;;;;;;15.82;4.30;;;16.80;99.90;;;;;;5084070;28;20128;-80
2023/10/09 13:31:46;;;;;;;16.20;4.68;;;16.80;99.90;;;;;;5099584;28;20055;-79
2023/10/09 13:34:15;;;;;;;16.33;4.20;;;16.80;99.90;;;;;;5108390;28;20040;-80
2023/10/09 13:36:50;;;;;;;17.40;4.13;;;16.80;99.90;;;;;;5090824;28;20527;-80
2023/10/09 13:39:26;;;;;;;17.77;4.43;;;16.80;99.90;;;;;;5093525;28;20082;-82
2023/10/09 13:41:59;;;;;;;15.02;4.43;;;16.80;99.90;;;;;;5074535;28;20040;-80
2023/10/09 13:44:36;;;;;;;12.43;4.00;;;16.80;99.90;;;;;;5102163;28;20044;-80
2023/10/09 13:47:18;;;;;;;14.57;4.22;;;16.80;99.90;;;;;;5087549;28;20048;-80
2023/10/09 13:49:45;;;;;;;18.00;4.80;;;16.80;99.90;;;;;;5086667;28;20184;-79
2023/10/09 13:52:17;;;;;;;17.63;4.60;;;16.80;99.90;;;;;;5087620;28;20116;-80
2023/10/09 13:54:47;;;;;;;18.25;5.03;;;16.80;99.90;;;;;;5097362;28;20078;-80
2023/10/09 13:57:14;;;;;;;11.40;4.15;;;16.80;99.90;;;;;;5076173;28;20118;-79
2023/10/09 13:59:51;;;;;;;14.65;4.10;;;16.80;99.90;;;;;;5100024;28;20039;-79
2023/10/09 14:02:18;;;;;;;12.40;4.00;;;16.80;99.90;;;;;;5091328;28;20328;-80
2023/10/09 14:04:47;;;;;;;13.27;3.72;;;16.60;99.90;;;;;;5116906;28;20032;-80
2023/10/09 14:07:16;;;;;;;13.23;4.63;;;16.80;99.90;;;;;;5095011;28;20414;-80
2023/10/09 14:09:54;;;;;;;17.05;4.28;;;16.80;99.90;;;;;;5095740;28;20051;-80
2023/10/09 14:12:21;;;;;;;11.43;3.25;;;16.80;99.90;;;;;;5097584;28;20048;-83
2023/10/09 14:14:48;;;;;;;11.27;3.17;;;16.80;99.90;;;;;;5092611;28;20039;-81
2023/10/09 14:17:23;;;;;;;14.80;3.35;;;16.80;99.90;;;;;;5111957;28;20040;-78
2023/10/09 14:19:50;;;;;;;18.08;4.30;;;16.70;99.90;;;;;;5081259;28;20048;-79
2023/10/09 14:22:24;;;;;;;8.00;3.15;;;16.70;99.90;;;;;;5073436;28;20166;-79
2023/10/09 14:24:57;;;;;;;10.23;3.15;;;16.70;99.90;;;;;;5090912;28;20401;-80
2023/10/09 14:27:35;;;;;;;13.90;3.60;;;16.60;99.90;;;;;;5083340;28;20540;-82
2023/10/09 14:30:00;;;;;;;12.30;3.20;;;16.60;99.90;;;;;;5091244;28;20028;-79
2023/10/09 14:32:33;;;;;;;10.25;3.05;;;16.60;99.90;;;;;;5096100;28;20542;-81
2023/10/09 14:35:02;;;;;;;18.38;3.88;;;16.60;99.90;;;;;;5096047;28;20040;-79
2023/10/09 14:37:29;;;;;;;12.18;3.65;;;16.60;99.90;;;;;;5097248;28;20106;-82
2023/10/09 14:39:58;;;;;;;10.02;3.45;;;16.60;99.90;;;;;;5115140;28;20426;-79
2023/10/09 14:42:27;;;;;;;12.77;4.38;;;16.60;99.90;;;;;;5103612;28;20048;-80
2023/10/09 14:44:53;;;;;;;12.65;3.42;;;16.60;99.90;;;;;;5096761;28;20044;-80
2023/10/09 14:47:18;;;;;;;14.05;3.05;;;16.70;99.90;;;;;;5098921;28;20066;-79
2023/10/09 14:49:48;;;;;;;10.23;3.13;;;16.70;99.90;;;;;;5081078;28;20439;-80
2023/10/09 14:52:17;;;;;;;7.35;2.72;;;16.70;99.90;;;;;;5098277;28;20040;-81
2023/10/09 14:54:44;;;;;;;13.82;3.00;;;16.70;99.90;;;;;;5079844;28;20188;-80
2023/10/09 14:57:11;;;;;;;14.80;3.47;;;16.70;99.90;;;;;;5103506;28;20394;-80
2023/10/09 14:59:37;;;;;;;12.65;3.13;;;16.70;99.90;;;;;;5094038;28;20036;-81
2023/10/09 15:02:05;;;;;;;11.95;3.47;;;16.60;99.90;;;;;;5098267;28;20443;-82
2023/10/09 15:04:31;;;;;;;16.42;3.22;;;16.70;99.90;;;;;;5097750;28;20530;-81
2023/10/09 15:07:07;;;;;;;16.30;3.17;;;16.70;99.90;;;;;;5097324;28;20079;-80
2023/10/09 15:09:36;;;;;;;16.83;3.20;;;16.70;99.90;;;;;;5098581;28;20044;-80
2023/10/09 15:12:02;;;;;;;11.18;2.95;;;16.60;99.90;;;;;;5079222;28;20113;-80
2023/10/09 15:14:28;;;;;;;17.08;3.20;;;16.60;99.90;;;;;;5098162;28;20036;-82
2023/10/09 15:16:54;;;;;;;13.50;2.50;;;16.70;99.90;;;;;;5082936;28;20043;-81
2023/10/09 15:19:29;;;;;;;10.88;2.70;;;16.60;99.90;;;;;;5089929;28;20044;-81
2023/10/09 15:21:56;;;;;;;18.05;3.55;;;16.60;99.90;;;;;;5077667;28;20044;-80
2023/10/09 15:24:22;;;;;;;13.05;3.10;;;16.60;99.90;;;;;;5082925;28;20531;-81
2023/10/09 15:26:57;;;;;;;13.27;3.15;;;16.60;99.90;;;;;;5100376;28;20086;-79
2023/10/09 15:29:28;;;;;;;9.55;2.90;;;16.70;99.90;;;;;;5103326;28;20048;-81
2023/10/09 15:32:04;;;;;;;9.73;2.72;;;16.60;99.90;;;;;;5082903;28;20072;-80
2023/10/09 15:34:31;;;;;;;8.48;2.55;;;16.60;99.90;;;;;;5104021;28;20044;-80
2023/10/09 15:36:57;;;;;;;13.23;3.00;;;16.60;99.90;;;;;;5095558;28;20031;-80
2023/10/09 15:39:23;;;;;;;8.18;2.63;;;16.60;99.90;;;;;;5100505;28;20040;-81
2023/10/09 15:41:52;;;;;;;11.10;2.58;;;16.50;99.90;;;;;;5103582;28;20059;-79
2023/10/09 15:44:18;;;;;;;9.90;2.65;;;16.50;99.90;;;;;;5085153;28;20052;-78
2023/10/09 15:46:47;;;;;;;12.38;2.33;;;16.50;99.90;;;;;;5085718;28;20072;-79
2023/10/09 15:49:15;;;;;;;11.18;2.33;;;16.40;99.90;;;;;;5089954;28;20097;-79
2023/10/09 15:51:41;;;;;;;11.98;2.55;;;16.40;99.90;;;;;;5105520;28;20040;-79